Tpc Timaru — V7US9 — position and weather

sailwx.info

Track history (hours):
 
Tides and Currents Weather Stations Pressure Air Temp Water Temp Dewpoint Dewpoint Depression Visibility Wind Speed Wind Dir Waves Ship Positions

Tpc Timaru

Last reported at 2017-Nov-19 01:07 UTC. Time now 2017-Dec-13 22:17 UTC.
Position N 08°03' W 014°39'.
Warning: this ship's position is 24 days out of date.

Length 180 m; draft 9.4 m.

Type: Cargo ship. MMSI: 538004037.

Date/timePositionNaut miles runAvg speedWind from/ knotsBaromVisibWave heightAir tempDewpointWater temp
2017-Nov-19 01:07N 08°03' W 014°39'  
2017-Nov-14 13:19N 27°37' W 015°13'411.8
2017-Nov-14 12:59N 27°41' W 015°12'611.6
2017-Nov-14 12:30N 27°46' W 015°09'611.9
2017-Nov-14 12:00N 27°52' W 015°07'611.8
2017-Nov-14 11:30N 27°57' W 015°05'611.7
2017-Nov-14 11:01N 28°03' W 015°03'611.6
2017-Nov-14 10:30N 28°08' W 015°01'612.0
2017-Nov-14 10:00N 28°14' W 014°58'611.9
2017-Nov-14 09:31N 28°19' W 014°56'611.6
2017-Nov-14 09:00N 28°25' W 014°54'611.9
2017-Nov-14 08:30N 28°30' W 014°51'611.9
2017-Nov-14 08:00N 28°36' W 014°48'612.0
2017-Nov-14 07:30N 28°41' W 014°45'912.2
2017-Nov-14 06:48N 28°49' W 014°41'512.2
2017-Nov-14 06:22N 28°54' W 014°39'512.1
2017-Nov-14 05:59N 28°58' W 014°37'612.2
2017-Nov-14 05:30N 29°03' W 014°34'712.4
2017-Nov-14 04:56N 29°10' W 014°31'612.7
2017-Nov-14 04:29N 29°15' W 014°28'612.4
2017-Nov-14 04:00N 29°21' W 014°25'1412.2
2017-Nov-14 02:53N 29°33' W 014°19'612.2
2017-Nov-14 02:25N 29°38' W 014°16'51312.0
2017-Nov-12 07:42N 37°27' W 010°05'1411.7
2017-Nov-12 06:30N 37°40' W 009°58'1812.1
2017-Nov-12 05:00N 37°56' W 009°49'612.5
2017-Nov-12 04:30N 38°02' W 009°46'612.8
2017-Nov-12 04:00N 38°08' W 009°42'612.5
2017-Nov-12 03:30N 38°14' W 009°39'612.4
2017-Nov-12 03:01N 38°19' W 009°36'612.1
2017-Nov-12 02:30N 38°25' W 009°33'611.9
2017-Nov-12 02:00N 38°30' W 009°30'611.1
2017-Nov-12 01:30N 38°35' W 009°26'511.0
2017-Nov-12 01:00N 38°38' W 009°21'5 9.7
2017-Nov-12 00:30N 38°41' W 009°16'3 6.1
2017-Nov-12 00:00N 38°41' W 009°12'0 0.1
2017-Nov-11 23:03N 38°41' W 009°12'0 0.1
2017-Nov-11 22:57N 38°41' W 009°12'0 0.2
2017-Nov-11 22:27N 38°41' W 009°12'0 0.1
2017-Nov-11 22:00N 38°41' W 009°12'0 0.0
2017-Nov-11 21:21N 38°41' W 009°12'0 0.0
2017-Nov-11 21:00N 38°41' W 009°12'0 0.0
2017-Nov-11 20:27N 38°41' W 009°12'0 0.0
2017-Nov-11 19:51N 38°41' W 009°12'0 0.0
2017-Nov-11 19:30N 38°41' W 009°12'0 0.0
2017-Nov-11 19:00N 38°41' W 009°12'0 0.0
2017-Nov-11 18:24N 38°41' W 009°12'0 0.0
2017-Nov-11 17:57N 38°41' W 009°12'0 0.0
2017-Nov-11 17:27N 38°41' W 009°12'0 0.1
2017-Nov-11 16:57N 38°41' W 009°12'0 0.3
2017-Nov-11 16:30N 38°41' W 009°12'2 4.1
2017-Nov-11 16:00N 38°41' W 009°14'5 9.3
2017-Nov-11 15:30N 38°39' W 009°20'3 6.3
2017-Nov-11 15:00N 38°38' W 009°24'3 5.7
2017-Nov-11 14:30N 38°40' W 009°27'4 7.2
2017-Nov-11 14:00N 38°38' W 009°30'511.0
2017-Nov-11 13:30N 38°36' W 009°37'510.8
2017-Nov-11 13:00N 38°34' W 009°43'611.3
2017-Nov-11 12:30N 38°33' W 009°50'511.0
2017-Nov-11 12:00N 38°33' W 009°57'510.4
2017-Nov-11 11:30N 38°36' W 010°03'611.7
2017-Nov-11 11:00N 38°41' W 010°06'611.6
2017-Nov-11 10:30N 38°47' W 010°06'611.9
2017-Nov-11 10:00N 38°53' W 010°06'612.2
2017-Nov-11 09:30N 38°59' W 010°07'612.0
2017-Nov-11 09:00N 39°05' W 010°07'611.6
2017-Nov-11 08:30N 39°11' W 010°06'611.9
2017-Nov-11 07:59N 39°17' W 010°06'  
2017-Nov-09 01:27N 46°05' W 001°54'  
Track history (hours):
 
Tides and Currents Weather Stations Pressure Air Temp Water Temp Dewpoint Dewpoint Depression Visibility Wind Speed Wind Dir Waves Ship Positions

Tpc Timaru

Last reported at 2017-Nov-19 01:07 UTC. Time now 2017-Dec-13 22:17 UTC.
Position N 08°03' W 014°39'.
Warning: this ship's position is 24 days out of date.

Length 180 m; draft 9.4 m.

Type: Cargo ship. MMSI: 538004037.

Date/timePositionNaut miles runAvg speedWind from/ knotsBaromVisibWave heightAir tempDewpointWater temp
2017-Nov-19 01:07N 08°03' W 014°39'  
2017-Nov-14 13:19N 27°37' W 015°13'411.8
2017-Nov-14 12:59N 27°41' W 015°12'611.6
2017-Nov-14 12:30N 27°46' W 015°09'611.9
2017-Nov-14 12:00N 27°52' W 015°07'611.8
2017-Nov-14 11:30N 27°57' W 015°05'611.7
2017-Nov-14 11:01N 28°03' W 015°03'611.6
2017-Nov-14 10:30N 28°08' W 015°01'612.0
2017-Nov-14 10:00N 28°14' W 014°58'611.9
2017-Nov-14 09:31N 28°19' W 014°56'611.6
2017-Nov-14 09:00N 28°25' W 014°54'611.9
2017-Nov-14 08:30N 28°30' W 014°51'611.9
2017-Nov-14 08:00N 28°36' W 014°48'612.0
2017-Nov-14 07:30N 28°41' W 014°45'912.2
2017-Nov-14 06:48N 28°49' W 014°41'512.2
2017-Nov-14 06:22N 28°54' W 014°39'512.1
2017-Nov-14 05:59N 28°58' W 014°37'612.2
2017-Nov-14 05:30N 29°03' W 014°34'712.4
2017-Nov-14 04:56N 29°10' W 014°31'612.7
2017-Nov-14 04:29N 29°15' W 014°28'612.4
2017-Nov-14 04:00N 29°21' W 014°25'1412.2
2017-Nov-14 02:53N 29°33' W 014°19'612.2
2017-Nov-14 02:25N 29°38' W 014°16'51312.0
2017-Nov-12 07:42N 37°27' W 010°05'1411.7
2017-Nov-12 06:30N 37°40' W 009°58'1812.1
2017-Nov-12 05:00N 37°56' W 009°49'612.5
2017-Nov-12 04:30N 38°02' W 009°46'612.8
2017-Nov-12 04:00N 38°08' W 009°42'612.5
2017-Nov-12 03:30N 38°14' W 009°39'612.4
2017-Nov-12 03:01N 38°19' W 009°36'612.1
2017-Nov-12 02:30N 38°25' W 009°33'611.9
2017-Nov-12 02:00N 38°30' W 009°30'611.1
2017-Nov-12 01:30N 38°35' W 009°26'511.0
2017-Nov-12 01:00N 38°38' W 009°21'5 9.7
2017-Nov-12 00:30N 38°41' W 009°16'3 6.1
2017-Nov-12 00:00N 38°41' W 009°12'0 0.1
2017-Nov-11 23:03N 38°41' W 009°12'0 0.1
2017-Nov-11 22:57N 38°41' W 009°12'0 0.2
2017-Nov-11 22:27N 38°41' W 009°12'0 0.1
2017-Nov-11 22:00N 38°41' W 009°12'0 0.0
2017-Nov-11 21:21N 38°41' W 009°12'0 0.0
2017-Nov-11 21:00N 38°41' W 009°12'0 0.0
2017-Nov-11 20:27N 38°41' W 009°12'0 0.0
2017-Nov-11 19:51N 38°41' W 009°12'0 0.0
2017-Nov-11 19:30N 38°41' W 009°12'0 0.0
2017-Nov-11 19:00N 38°41' W 009°12'0 0.0
2017-Nov-11 18:24N 38°41' W 009°12'0 0.0
2017-Nov-11 17:57N 38°41' W 009°12'0 0.0
2017-Nov-11 17:27N 38°41' W 009°12'0 0.1
2017-Nov-11 16:57N 38°41' W 009°12'0 0.3
2017-Nov-11 16:30N 38°41' W 009°12'2 4.1
2017-Nov-11 16:00N 38°41' W 009°14'5 9.3
2017-Nov-11 15:30N 38°39' W 009°20'3 6.3
2017-Nov-11 15:00N 38°38' W 009°24'3 5.7
2017-Nov-11 14:30N 38°40' W 009°27'4 7.2
2017-Nov-11 14:00N 38°38' W 009°30'511.0
2017-Nov-11 13:30N 38°36' W 009°37'510.8
2017-Nov-11 13:00N 38°34' W 009°43'611.3
2017-Nov-11 12:30N 38°33' W 009°50'511.0
2017-Nov-11 12:00N 38°33' W 009°57'510.4
2017-Nov-11 11:30N 38°36' W 010°03'611.7
2017-Nov-11 11:00N 38°41' W 010°06'611.6
2017-Nov-11 10:30N 38°47' W 010°06'611.9
2017-Nov-11 10:00N 38°53' W 010°06'612.2
2017-Nov-11 09:30N 38°59' W 010°07'612.0
2017-Nov-11 09:00N 39°05' W 010°07'611.6
2017-Nov-11 08:30N 39°11' W 010°06'611.9
2017-Nov-11 07:59N 39°17' W 010°06'  
2017-Nov-09 01:27N 46°05' W 001°54'  

Dump ship's entire track history